createdAt,value
2023-05-10T00:01:42.648Z,81.47
2023-05-10T00:04:09.485Z,81.18
2023-05-10T00:06:36.317Z,81.06
2023-05-10T00:09:03.120Z,81.34
2023-05-10T00:11:29.803Z,81.33
2023-05-10T00:13:56.635Z,81.53
2023-05-10T00:16:24.806Z,81.45
2023-05-10T00:18:51.578Z,81.51
2023-05-10T00:21:18.304Z,81.72
2023-05-10T00:23:44.978Z,81.75
2023-05-10T00:26:11.810Z,82.20
2023-05-10T00:28:38.547Z,81.82
2023-05-10T00:31:05.243Z,82.43
2023-05-10T00:33:33.343Z,83.26
2023-05-10T00:36:00.174Z,83.36
2023-05-10T00:38:26.883Z,82.66
2023-05-10T00:40:53.670Z,83.23
2023-05-10T00:43:20.428Z,83.45
2023-05-10T00:45:47.142Z,84.53
2023-05-10T00:48:13.892Z,85.22
2023-05-10T00:50:42.233Z,85.86
2023-05-10T00:53:08.878Z,85.14
2023-05-10T00:55:35.637Z,85.30
2023-05-10T00:58:02.421Z,85.74
2023-05-10T01:00:29.138Z,86.33
2023-05-10T01:02:55.888Z,85.08
2023-05-10T01:05:22.817Z,85.39
2023-05-10T01:07:50.998Z,84.68
2023-05-10T01:10:17.904Z,85.09
2023-05-10T01:12:46.004Z,85.27
2023-05-10T01:15:12.716Z,84.76
2023-05-10T01:17:40.455Z,86.28
2023-05-10T01:20:09.724Z,86.94
2023-05-10T01:23:12.001Z,87.41
2023-05-10T01:26:02.344Z,88.22
2023-05-10T01:29:07.566Z,89.60
2023-05-10T01:32:08.073Z,89.53
2023-05-10T01:34:36.417Z,89.41
2023-05-10T01:37:05.975Z,89.69
2023-05-10T01:39:37.309Z,89.58
2023-05-10T01:42:05.868Z,88.80
2023-05-10T01:44:34.987Z,89.21
2023-05-10T01:47:04.940Z,89.12
2023-05-10T01:49:35.619Z,86.48
2023-05-10T01:52:07.371Z,85.51
2023-05-10T01:54:34.212Z,86.19
2023-05-10T01:57:02.658Z,87.01
2023-05-10T01:59:30.684Z,86.42
2023-05-10T02:01:57.848Z,85.31
2023-05-10T02:04:24.490Z,84.94
2023-05-10T02:06:52.622Z,85.17
2023-05-10T02:09:19.279Z,84.26
2023-05-10T02:11:45.969Z,84.05
2023-05-10T02:14:12.730Z,84.48
2023-05-10T02:16:39.488Z,84.68
2023-05-10T02:19:06.182Z,85.52
2023-05-10T02:21:33.266Z,85.12
2023-05-10T02:24:01.573Z,85.60
2023-05-10T02:26:28.222Z,85.13
2023-05-10T02:28:54.888Z,84.85
2023-05-10T02:31:21.648Z,85.67
2023-05-10T02:33:48.386Z,86.10
2023-05-10T02:36:15.098Z,85.78
2023-05-10T02:38:41.738Z,85.89
2023-05-10T02:41:09.822Z,87.09
2023-05-10T02:43:36.573Z,87.70
2023-05-10T02:46:03.309Z,88.36
2023-05-10T02:48:29.982Z,88.42
2023-05-10T02:50:57.338Z,84.18
2023-05-10T02:53:24.649Z,84.26
2023-05-10T02:55:52.877Z,83.52
2023-05-10T02:58:21.117Z,83.92
2023-05-10T03:00:47.827Z,82.77
2023-05-10T03:03:14.568Z,81.94
2023-05-10T03:05:41.327Z,82.50
2023-05-10T03:08:08.056Z,81.86
2023-05-10T03:10:35.132Z,81.64
2023-05-10T03:13:08.915Z,82.21
2023-05-10T03:15:43.592Z,82.20
2023-05-10T03:18:11.654Z,82.32
2023-05-10T03:20:41.924Z,82.06
2023-05-10T03:23:12.835Z,81.74
2023-05-10T03:25:39.551Z,81.86
2023-05-10T03:28:06.210Z,82.64
2023-05-10T03:30:33.001Z,82.30
2023-05-10T03:33:04.956Z,83.09
2023-05-10T03:35:31.883Z,83.52
2023-05-10T03:37:58.664Z,83.17
2023-05-10T03:40:25.408Z,82.69
2023-05-10T03:42:52.100Z,82.77
2023-05-10T03:45:18.946Z,82.93
2023-05-10T03:47:45.627Z,83.10
2023-05-10T03:50:13.716Z,82.91
2023-05-10T03:52:40.659Z,82.57
2023-05-10T03:55:07.978Z,81.68
2023-05-10T03:57:34.721Z,81.68
2023-05-10T04:00:01.640Z,81.26
2023-05-10T04:02:28.415Z,80.72
2023-05-10T04:04:55.219Z,79.73
2023-05-10T04:07:23.272Z,79.90
2023-05-10T04:09:49.969Z,80.89
2023-05-10T04:12:16.765Z,81.19
2023-05-10T04:14:43.462Z,80.33
2023-05-10T04:17:10.293Z,80.43
2023-05-10T04:19:36.994Z,79.55
2023-05-10T04:22:03.922Z,78.31
2023-05-10T04:24:32.015Z,77.09
2023-05-10T04:26:58.718Z,77.52
2023-05-10T04:29:25.480Z,76.57
2023-05-10T04:31:52.203Z,76.11
2023-05-10T04:34:18.928Z,75.30
2023-05-10T04:36:45.627Z,75.75
2023-05-10T04:39:12.258Z,74.90
2023-05-10T04:41:40.290Z,75.22
2023-05-10T04:44:07.030Z,74.42
2023-05-10T04:46:33.840Z,72.89
2023-05-10T04:49:01.336Z,71.43
2023-05-10T04:51:28.091Z,73.03
2023-05-10T04:54:05.451Z,71.35
2023-05-10T04:56:33.527Z,72.60
2023-05-10T04:59:01.706Z,74.17
2023-05-10T05:01:28.402Z,75.48
2023-05-10T05:03:55.278Z,75.29
2023-05-10T05:06:22.288Z,72.23
2023-05-10T05:08:49.015Z,71.48
2023-05-10T05:11:15.729Z,69.91
2023-05-10T05:13:42.465Z,69.20
2023-05-10T05:16:10.541Z,68.55
2023-05-10T05:18:37.272Z,68.61
2023-05-10T05:21:04.098Z,67.15
2023-05-10T05:23:30.828Z,67.83
2023-05-10T05:25:57.668Z,67.67
2023-05-10T05:28:24.322Z,68.02
2023-05-10T05:30:50.998Z,65.50
2023-05-10T05:33:19.146Z,65.21
2023-05-10T05:35:45.953Z,66.05
2023-05-10T05:38:12.720Z,64.72
2023-05-10T05:40:39.449Z,63.58
2023-05-10T05:43:06.078Z,64.92
2023-05-10T05:45:32.743Z,63.14
2023-05-10T05:47:59.768Z,63.53
2023-05-10T05:50:27.934Z,63.78
2023-05-10T05:52:54.594Z,63.17
2023-05-10T05:55:21.349Z,63.67
2023-05-10T05:57:48.097Z,63.08
2023-05-10T06:00:15.470Z,61.33
2023-05-10T06:02:42.363Z,62.38
2023-05-10T06:05:09.837Z,61.91
2023-05-10T06:07:37.890Z,62.32
2023-05-10T06:10:05.505Z,61.86
2023-05-10T06:12:32.236Z,60.73
2023-05-10T06:14:58.977Z,61.66
2023-05-10T06:17:25.738Z,58.69
2023-05-10T06:19:52.540Z,60.48
2023-05-10T06:22:19.281Z,60.94
2023-05-10T06:24:47.422Z,57.64
2023-05-10T06:27:14.100Z,60.62
2023-05-10T06:29:40.785Z,60.34
2023-05-10T06:32:07.644Z,59.49
2023-05-10T06:34:34.355Z,58.16
2023-05-10T06:37:01.092Z,62.19
2023-05-10T06:39:27.821Z,58.26
2023-05-10T06:41:55.840Z,57.68
2023-05-10T06:44:22.581Z,59.20
2023-05-10T06:46:49.468Z,60.39
2023-05-10T06:49:16.130Z,59.82
2023-05-10T06:51:42.925Z,59.53
2023-05-10T06:54:09.599Z,58.18
2023-05-10T06:56:36.268Z,57.73
2023-05-10T06:59:04.441Z,61.47
2023-05-10T07:01:31.188Z,60.17
2023-05-10T07:03:57.877Z,60.18
2023-05-10T07:06:32.834Z,57.26
2023-05-10T07:09:00.354Z,58.29
2023-05-10T07:11:27.053Z,56.21
2023-05-10T07:13:53.724Z,53.73
2023-05-10T07:16:21.898Z,50.40
2023-05-10T07:18:48.693Z,55.34
2023-05-10T07:21:15.465Z,54.55
2023-05-10T07:23:43.679Z,57.71
2023-05-10T07:26:11.662Z,53.96
2023-05-10T07:28:38.396Z,54.78
2023-05-10T07:31:05.166Z,48.13
2023-05-10T07:33:33.326Z,50.01
2023-05-10T07:36:00.028Z,51.05
2023-05-10T07:38:26.828Z,51.79
2023-05-10T07:40:53.588Z,49.50
2023-05-10T07:43:20.239Z,54.79
2023-05-10T07:45:49.951Z,56.40
2023-05-10T07:48:16.682Z,52.67
2023-05-10T07:50:44.768Z,52.51
2023-05-10T07:53:11.492Z,54.54
2023-05-10T07:55:38.169Z,52.90
2023-05-10T07:58:04.874Z,48.84
2023-05-10T08:00:31.785Z,52.63
2023-05-10T08:02:58.557Z,47.96
2023-05-10T08:05:25.265Z,49.44
2023-05-10T08:07:53.422Z,51.35
2023-05-10T08:10:20.102Z,56.85
2023-05-10T08:12:46.752Z,52.90
2023-05-10T08:15:13.661Z,47.51
2023-05-10T08:17:40.457Z,55.77
2023-05-10T08:20:07.920Z,50.48
2023-05-10T08:22:34.608Z,48.93
2023-05-10T08:25:02.651Z,51.85
2023-05-10T08:27:29.367Z,50.32
2023-05-10T08:29:56.067Z,50.69
2023-05-10T08:32:22.740Z,50.31
2023-05-10T08:34:49.439Z,49.59
2023-05-10T08:37:16.158Z,47.18
2023-05-10T08:39:42.816Z,49.54
2023-05-10T08:42:10.855Z,47.08
2023-05-10T08:44:37.834Z,48.13
2023-05-10T08:47:06.122Z,48.22
2023-05-10T08:49:33.007Z,49.75
2023-05-10T08:52:00.167Z,43.92
2023-05-10T08:54:26.909Z,49.50
2023-05-10T08:56:53.690Z,49.01
2023-05-10T08:59:21.805Z,50.81
2023-05-10T09:01:48.536Z,46.55
2023-05-10T09:04:15.322Z,43.29
2023-05-10T09:06:42.143Z,43.18
2023-05-10T09:09:08.896Z,48.50
2023-05-10T09:11:35.567Z,48.75
2023-05-10T09:14:02.565Z,49.45
2023-05-10T09:16:30.685Z,49.62
2023-05-10T09:18:57.481Z,47.07
2023-05-10T09:21:24.295Z,49.18
2023-05-10T09:23:51.177Z,50.68
2023-05-10T09:26:18.054Z,48.35
2023-05-10T09:28:51.727Z,36.48
2023-05-10T09:31:18.425Z,40.63
2023-05-10T09:33:46.811Z,45.30
2023-05-10T09:36:13.820Z,43.09
2023-05-10T09:38:46.454Z,42.49
2023-05-10T09:41:17.308Z,43.42
2023-05-10T09:43:44.115Z,47.12
2023-05-10T09:46:10.865Z,47.53
2023-05-10T09:48:42.477Z,47.94
2023-05-10T09:51:10.520Z,41.26
2023-05-10T09:53:37.238Z,38.40
2023-05-10T09:56:04.223Z,41.28
2023-05-10T09:58:30.914Z,44.27
2023-05-10T10:00:57.572Z,45.01
2023-05-10T10:03:24.341Z,48.00
2023-05-10T10:05:50.988Z,43.19
2023-05-10T10:08:19.028Z,43.53
2023-05-10T10:10:46.130Z,43.24
2023-05-10T10:13:13.245Z,44.12
2023-05-10T10:15:39.965Z,45.24
2023-05-10T10:18:06.765Z,44.16
2023-05-10T10:20:33.605Z,48.11
2023-05-10T10:23:00.305Z,42.76
2023-05-10T10:25:28.472Z,40.41
2023-05-10T10:28:04.429Z,42.79
2023-05-10T10:30:37.433Z,43.21
2023-05-10T10:33:34.780Z,44.76
2023-05-10T10:36:02.135Z,44.47
2023-05-10T10:38:37.440Z,43.26
2023-05-10T10:41:12.094Z,42.03
2023-05-10T10:43:38.742Z,39.06
2023-05-10T10:46:12.731Z,40.24
2023-05-10T10:48:39.445Z,37.54
2023-05-10T10:51:06.126Z,40.81
2023-05-10T10:53:33.282Z,41.36
2023-05-10T10:56:07.992Z,41.97
2023-05-10T10:58:35.030Z,40.34
2023-05-10T11:01:11.943Z,39.65
2023-05-10T11:03:38.885Z,39.58
2023-05-10T11:06:06.011Z,38.27
2023-05-10T11:08:34.476Z,40.97
2023-05-10T11:11:07.830Z,43.65
2023-05-10T11:13:35.458Z,43.31
2023-05-10T11:16:12.724Z,45.24
2023-05-10T11:18:39.484Z,45.79
2023-05-10T11:21:06.389Z,44.13
2023-05-10T11:23:33.679Z,44.51
2023-05-10T11:26:00.749Z,44.47
2023-05-10T11:28:28.826Z,41.61
2023-05-10T11:30:55.607Z,42.78
2023-05-10T11:33:22.351Z,44.26
2023-05-10T11:35:49.085Z,42.14
2023-05-10T11:38:15.814Z,40.91
2023-05-10T11:40:42.573Z,42.18
2023-05-10T11:43:09.971Z,42.84
2023-05-10T11:45:38.063Z,44.31
2023-05-10T11:48:05.082Z,44.76
2023-05-10T11:50:31.774Z,44.29
2023-05-10T11:52:58.608Z,45.74
2023-05-10T11:55:25.461Z,44.35
2023-05-10T11:57:53.194Z,43.82
2023-05-10T12:00:20.424Z,43.22
2023-05-10T12:02:48.693Z,43.54
2023-05-10T12:05:15.497Z,42.21
2023-05-10T12:07:42.176Z,42.84
2023-05-10T12:10:09.506Z,42.54
2023-05-10T12:12:39.765Z,42.82
2023-05-10T12:15:07.886Z,43.38
2023-05-10T12:17:34.569Z,43.28
2023-05-10T12:20:16.133Z,43.16
2023-05-10T12:22:45.538Z,42.27
2023-05-10T12:25:12.208Z,43.40
2023-05-10T12:27:38.954Z,42.16
2023-05-10T12:30:06.889Z,42.04
2023-05-10T12:32:40.764Z,42.59
2023-05-10T12:35:07.977Z,41.90
2023-05-10T12:37:36.102Z,42.87
2023-05-10T12:40:02.924Z,42.60
2023-05-10T12:42:29.580Z,42.35
2023-05-10T12:44:56.927Z,42.41
2023-05-10T12:47:23.680Z,42.67
2023-05-10T12:49:50.345Z,42.17
2023-05-10T12:52:17.030Z,40.68
2023-05-10T12:54:45.163Z,42.53
2023-05-10T12:57:11.840Z,42.36
2023-05-10T12:59:38.515Z,40.49
2023-05-10T13:02:05.432Z,41.47
2023-05-10T13:04:32.129Z,40.53
2023-05-10T13:06:58.791Z,41.34
2023-05-10T13:09:25.493Z,41.05
2023-05-10T13:11:53.538Z,39.67
2023-05-10T13:14:20.243Z,41.17
2023-05-10T13:16:46.994Z,40.74
2023-05-10T13:19:13.875Z,38.34
2023-05-10T13:21:40.657Z,38.99
2023-05-10T13:24:07.480Z,39.15
2023-05-10T13:26:34.296Z,39.01
2023-05-10T13:29:02.356Z,38.96
2023-05-10T13:31:29.162Z,39.40
2023-05-10T13:33:56.141Z,39.86
2023-05-10T13:36:22.836Z,40.89
2023-05-10T13:38:49.610Z,39.96
2023-05-10T13:41:16.300Z,41.59
2023-05-10T13:43:42.980Z,39.42
2023-05-10T13:46:11.184Z,40.40
2023-05-10T13:48:39.099Z,41.39
2023-05-10T13:51:06.057Z,41.00
2023-05-10T13:53:32.793Z,40.66
2023-05-10T13:55:59.474Z,41.54
2023-05-10T13:58:26.209Z,39.77
2023-05-10T14:00:52.958Z,38.18
2023-05-10T14:03:22.329Z,38.31
2023-05-10T14:05:49.068Z,37.59
2023-05-10T14:08:15.869Z,38.99
2023-05-10T14:10:42.537Z,38.20
2023-05-10T14:13:09.286Z,39.07
2023-05-10T14:15:36.091Z,37.69
2023-05-10T14:18:02.969Z,37.68
2023-05-10T14:20:31.082Z,37.49
2023-05-10T14:22:57.826Z,38.03
2023-05-10T14:25:24.490Z,37.63
2023-05-10T14:27:51.182Z,37.36
2023-05-10T14:30:18.007Z,38.33
2023-05-10T14:32:44.698Z,37.23
2023-05-10T14:35:14.492Z,36.77
2023-05-10T14:37:44.255Z,37.66
2023-05-10T14:40:11.816Z,37.87
2023-05-10T14:42:38.478Z,37.64
2023-05-10T14:45:06.336Z,38.42
2023-05-10T14:47:33.029Z,39.38
2023-05-10T14:49:59.708Z,39.83
2023-05-10T14:52:26.466Z,39.37
2023-05-10T14:54:54.484Z,38.46
2023-05-10T14:57:21.144Z,36.65
2023-05-10T14:59:47.871Z,36.32
2023-05-10T15:02:15.060Z,36.60
2023-05-10T15:04:42.165Z,38.51
2023-05-10T15:07:09.325Z,39.08
2023-05-10T15:09:36.036Z,38.20
2023-05-10T15:12:04.316Z,38.61
2023-05-10T15:14:31.096Z,38.58
2023-05-10T15:16:57.799Z,39.29
2023-05-10T15:19:24.495Z,40.63
2023-05-10T15:21:51.266Z,39.80
2023-05-10T15:24:17.932Z,38.99
2023-05-10T15:26:44.875Z,40.64
2023-05-10T15:29:13.380Z,40.99
2023-05-10T15:31:40.155Z,40.86
2023-05-10T15:34:06.890Z,41.36
2023-05-10T15:36:33.706Z,41.14
2023-05-10T15:39:00.339Z,40.70
2023-05-10T15:41:26.998Z,40.76
2023-05-10T15:43:54.546Z,40.93
2023-05-10T15:46:22.762Z,40.75
2023-05-10T15:48:49.572Z,40.57
2023-05-10T15:51:16.342Z,40.84
2023-05-10T15:53:56.559Z,41.58
2023-05-10T15:56:29.821Z,40.55
2023-05-10T15:58:56.591Z,40.41
2023-05-10T16:01:24.657Z,40.30
2023-05-10T16:03:51.395Z,39.96
2023-05-10T16:06:18.096Z,40.35
2023-05-10T16:08:44.763Z,40.30
2023-05-10T16:11:11.544Z,40.06
2023-05-10T16:13:38.203Z,40.28
2023-05-10T16:16:05.270Z,40.36
2023-05-10T16:18:33.495Z,40.35
2023-05-10T16:21:00.259Z,40.14
2023-05-10T16:23:26.930Z,40.32
2023-05-10T16:25:53.730Z,40.37
2023-05-10T16:28:21.316Z,41.37
2023-05-10T16:30:48.042Z,40.97
2023-05-10T16:33:15.039Z,41.68
2023-05-10T16:35:43.154Z,41.94
2023-05-10T16:38:09.812Z,41.70
2023-05-10T16:40:36.499Z,41.49
2023-05-10T16:43:03.212Z,42.10
2023-05-10T16:45:31.338Z,41.90
2023-05-10T16:47:58.056Z,42.05
2023-05-10T16:50:24.760Z,42.12
2023-05-10T16:52:52.838Z,42.25
2023-05-10T16:55:19.849Z,42.94
2023-05-10T16:57:46.527Z,42.85
2023-05-10T17:00:14.226Z,42.89
2023-05-10T17:02:41.042Z,42.72
2023-05-10T17:05:08.201Z,42.52
2023-05-10T17:07:34.841Z,42.51
2023-05-10T17:10:02.892Z,43.14
2023-05-10T17:12:29.616Z,43.31
2023-05-10T17:14:56.278Z,43.69
2023-05-10T17:17:23.035Z,43.34
2023-05-10T17:19:49.730Z,43.59
2023-05-10T17:22:16.399Z,44.29
2023-05-10T17:24:45.176Z,43.68
2023-05-10T17:27:13.744Z,42.93
2023-05-10T17:29:40.402Z,43.76
2023-05-10T17:32:07.171Z,43.26
2023-05-10T17:34:33.822Z,43.27
2023-05-10T17:37:00.490Z,43.42
2023-05-10T17:39:27.246Z,44.81
2023-05-10T17:41:53.928Z,44.21
2023-05-10T17:44:21.983Z,45.18
2023-05-10T17:46:48.669Z,44.96
2023-05-10T17:49:15.365Z,45.12
2023-05-10T17:51:42.021Z,45.74
2023-05-10T17:54:08.768Z,46.14
2023-05-10T17:56:35.454Z,46.75
2023-05-10T17:59:02.666Z,47.41
2023-05-10T18:01:30.855Z,47.29
2023-05-10T18:03:57.681Z,48.15
2023-05-10T18:06:24.374Z,48.09
2023-05-10T18:08:51.199Z,48.13
2023-05-10T18:11:18.038Z,48.85
2023-05-10T18:13:44.684Z,49.59
2023-05-10T18:16:11.477Z,50.11
2023-05-10T18:18:39.675Z,49.55
2023-05-10T18:21:06.452Z,50.53
2023-05-10T18:23:33.408Z,50.67
2023-05-10T18:26:00.330Z,51.03
2023-05-10T18:28:27.009Z,51.20
2023-05-10T18:30:54.114Z,51.34
2023-05-10T18:33:20.903Z,51.66
2023-05-10T18:35:48.997Z,51.94
2023-05-10T18:38:15.693Z,53.33
2023-05-10T18:40:42.408Z,54.77
2023-05-10T18:43:09.113Z,53.44
2023-05-10T18:45:35.940Z,53.46
2023-05-10T18:48:02.667Z,53.76
2023-05-10T18:50:29.432Z,53.87
2023-05-10T18:52:57.532Z,53.61
2023-05-10T18:55:24.265Z,53.80
2023-05-10T18:57:50.976Z,54.76
2023-05-10T19:00:17.750Z,54.36
2023-05-10T19:02:44.459Z,54.70
2023-05-10T19:05:11.197Z,55.40
2023-05-10T19:07:37.926Z,54.69
2023-05-10T19:10:07.145Z,55.23
2023-05-10T19:12:34.259Z,54.85
2023-05-10T19:15:00.955Z,55.11
2023-05-10T19:17:30.784Z,55.82
2023-05-10T19:19:57.675Z,55.24
2023-05-10T19:22:35.366Z,55.57
2023-05-10T19:25:11.982Z,55.61
2023-05-10T19:27:38.943Z,54.80
2023-05-10T19:30:07.102Z,55.55
2023-05-10T19:32:33.866Z,55.88
2023-05-10T19:35:01.147Z,56.32
2023-05-10T19:37:28.018Z,55.97
2023-05-10T19:39:54.701Z,55.29
2023-05-10T19:42:22.807Z,55.95
2023-05-10T19:44:49.485Z,55.14
2023-05-10T19:47:16.209Z,55.78
2023-05-10T19:49:43.066Z,55.27
2023-05-10T19:52:09.796Z,54.62
2023-05-10T19:54:36.465Z,55.29
2023-05-10T19:57:03.399Z,54.76
2023-05-10T19:59:31.468Z,55.36
2023-05-10T20:01:58.130Z,55.34
2023-05-10T20:04:24.855Z,54.74
2023-05-10T20:06:51.548Z,54.99
2023-05-10T20:09:18.245Z,55.31
2023-05-10T20:11:44.959Z,54.69
2023-05-10T20:14:11.680Z,54.33
2023-05-10T20:16:39.778Z,54.79
2023-05-10T20:19:06.534Z,54.13
2023-05-10T20:21:33.286Z,54.54
2023-05-10T20:23:59.928Z,55.14
2023-05-10T20:26:26.715Z,54.76
2023-05-10T20:28:53.413Z,55.31
2023-05-10T20:31:20.149Z,54.64
2023-05-10T20:33:48.339Z,55.41
2023-05-10T20:36:15.020Z,55.42
2023-05-10T20:38:41.719Z,55.18
2023-05-10T20:41:08.506Z,56.12
2023-05-10T20:43:35.196Z,56.39
2023-05-10T20:46:01.886Z,56.51
2023-05-10T20:48:28.621Z,56.25
2023-05-10T20:50:57.063Z,56.03
2023-05-10T20:53:23.796Z,56.48
2023-05-10T20:55:50.484Z,56.98
2023-05-10T20:58:17.142Z,57.45
2023-05-10T21:00:43.796Z,57.25
2023-05-10T21:03:10.577Z,57.56
2023-05-10T21:05:37.312Z,58.48
2023-05-10T21:08:05.648Z,57.51
2023-05-10T21:10:32.362Z,57.74
2023-05-10T21:12:59.146Z,58.27
2023-05-10T21:15:25.913Z,58.34
2023-05-10T21:17:52.695Z,58.78
2023-05-10T21:20:19.655Z,59.14
2023-05-10T21:22:46.564Z,59.04
2023-05-10T21:25:14.770Z,59.06
2023-05-10T21:27:41.476Z,59.05
2023-05-10T21:30:09.191Z,59.20
2023-05-10T21:32:35.921Z,59.02
2023-05-10T21:35:02.673Z,59.25
2023-05-10T21:37:29.402Z,59.22
2023-05-10T21:39:56.102Z,59.21
2023-05-10T21:42:24.179Z,60.07
2023-05-10T21:44:50.886Z,59.13
2023-05-10T21:47:17.697Z,59.53
2023-05-10T21:49:44.680Z,59.86
2023-05-10T21:52:11.421Z,60.43
2023-05-10T21:54:38.143Z,60.91
2023-05-10T21:57:04.828Z,61.12
2023-05-10T21:59:32.949Z,61.37
2023-05-10T22:01:59.724Z,60.75
2023-05-10T22:04:26.466Z,60.64
2023-05-10T22:06:53.140Z,60.02
2023-05-10T22:09:19.943Z,61.06
2023-05-10T22:11:46.601Z,59.59
2023-05-10T22:14:13.287Z,59.27
2023-05-10T22:16:41.449Z,59.86
2023-05-10T22:19:08.291Z,59.62
2023-05-10T22:21:35.020Z,59.46
2023-05-10T22:24:01.778Z,60.15
2023-05-10T22:26:28.469Z,60.06
2023-05-10T22:28:55.163Z,60.02
2023-05-10T22:31:21.878Z,60.19
2023-05-10T22:33:49.995Z,60.07
2023-05-10T22:36:16.661Z,60.55
2023-05-10T22:38:43.366Z,59.89
2023-05-10T22:41:10.073Z,60.12
2023-05-10T22:43:36.790Z,60.45
2023-05-10T22:46:03.814Z,59.30
2023-05-10T22:48:30.603Z,60.18
2023-05-10T22:50:58.674Z,61.22
2023-05-10T22:53:25.523Z,61.49
2023-05-10T22:55:52.155Z,62.34
2023-05-10T22:58:18.832Z,60.92
2023-05-10T23:00:45.555Z,61.05
2023-05-10T23:03:12.268Z,62.13
2023-05-10T23:05:38.892Z,62.50
2023-05-10T23:08:06.981Z,62.91
2023-05-10T23:10:33.653Z,62.81
2023-05-10T23:13:00.393Z,63.85
2023-05-10T23:15:27.126Z,63.78
2023-05-10T23:17:53.831Z,63.81
2023-05-10T23:20:20.843Z,63.75
2023-05-10T23:22:47.705Z,64.26
2023-05-10T23:25:15.935Z,65.06
2023-05-10T23:27:42.620Z,64.97
2023-05-10T23:30:10.302Z,65.45
2023-05-10T23:32:36.994Z,65.33
2023-05-10T23:35:04.156Z,69.56
2023-05-10T23:37:30.897Z,67.89
2023-05-10T23:39:57.549Z,68.94
2023-05-10T23:42:25.619Z,68.09
2023-05-10T23:44:52.386Z,67.47
2023-05-10T23:47:19.130Z,68.44
2023-05-10T23:49:45.774Z,67.08
2023-05-10T23:52:12.492Z,66.96
2023-05-10T23:54:39.184Z,66.76
2023-05-10T23:57:05.866Z,66.52
2023-05-10T23:59:34.093Z,67.01
